Elberta, Alabama
Current Conditions -  °F | °C
As of 11:55 AM on Friday 31 Oct 2014 (Local Time) from KJKA Reporting Station
Clear Clear  
Wind Chill: 71°   Ceiling: Unl
Heat Index: 71°   Visibility: 10mi
Dew Point: 44°   Wind: 10mph
Humidity: 38%   Direction: 330°NNW
Pressure: 29.99"   Gusts: 17mph
Location:  30.41°N, 87.6°W
Report Text: KJKA 311655Z AUTO 33009G15KT 290V010 10SM CLR 21/07 A2999 RMK AO2 T02140065
Loading
Personal Weather Stations






























Interactive Weather Map
Tropical Storm Tracking
New forecast layout! Learn more

10-Day Weather Forecast

Advertisements
Track Severe Weather on mobile